createdAt,value
2018-04-12T00:01:33.304Z,14.95
2018-04-12T00:04:04.076Z,14.94
2018-04-12T00:06:34.814Z,14.79
2018-04-12T00:09:06.939Z,14.87
2018-04-12T00:11:43.124Z,14.76
2018-04-12T00:14:14.931Z,14.84
2018-04-12T00:16:47.296Z,14.86
2018-04-12T00:19:18.374Z,14.82
2018-04-12T00:21:49.048Z,14.66
2018-04-12T00:24:19.827Z,14.51
2018-04-12T00:26:50.704Z,14.36
2018-04-12T00:29:22.300Z,14.29
2018-04-12T00:34:35.699Z,14.36
2018-04-12T00:37:06.159Z,14.24
2018-04-12T00:39:37.666Z,14.16
2018-04-12T00:42:08.988Z,14.25
2018-04-12T00:44:39.802Z,14.17
2018-04-12T00:47:10.694Z,14.17
2018-04-12T00:49:40.962Z,14.11
2018-04-12T00:52:11.329Z,14.17
2018-04-12T00:54:42.298Z,14.13
2018-04-12T00:57:12.871Z,14.15
2018-04-12T00:59:43.131Z,14.20
2018-04-12T01:02:14.626Z,14.18
2018-04-12T01:04:45.538Z,14.31
2018-04-12T01:07:15.970Z,14.38
2018-04-12T01:09:47.076Z,14.26
2018-04-12T01:12:17.395Z,14.25
2018-04-12T01:14:47.601Z,14.17
2018-04-12T01:17:18.794Z,14.15
2018-04-12T01:19:49.572Z,14.24
2018-04-12T01:22:28.298Z,14.40
2018-04-12T01:25:01.578Z,14.27
2018-04-12T01:28:21.465Z,14.34
2018-04-12T01:30:52.307Z,14.55
2018-04-12T01:33:22.969Z,14.55
2018-04-12T01:35:53.349Z,14.51
2018-04-12T01:38:23.926Z,14.36
2018-04-12T01:40:54.252Z,14.22
2018-04-12T01:43:32.061Z,14.18
2018-04-12T01:46:03.339Z,14.27
2018-04-12T01:48:34.017Z,14.20
2018-04-12T01:51:05.529Z,14.15
2018-04-12T01:53:35.927Z,14.20
2018-04-12T01:56:11.331Z,14.16
2018-04-12T01:58:41.819Z,14.12
2018-04-12T02:01:12.030Z,14.12
2018-04-12T02:03:42.774Z,14.10
2018-04-12T02:06:13.211Z,14.12
2018-04-12T02:08:43.613Z,14.07
2018-04-12T02:11:14.313Z,14.03
2018-04-12T02:13:44.795Z,14.05
2018-04-12T02:16:15.807Z,14.06
2018-04-12T02:18:47.219Z,14.07
2018-04-12T02:21:17.857Z,14.08
2018-04-12T02:23:48.748Z,14.07
2018-04-12T02:26:19.208Z,14.01
2018-04-12T02:37:08.310Z,13.86
2018-04-12T02:39:38.789Z,13.80
2018-04-12T02:42:09.141Z,13.81
2018-04-12T02:44:40.104Z,13.83
2018-04-12T02:47:13.274Z,13.91
2018-04-12T02:49:49.816Z,13.92
2018-04-12T02:52:21.263Z,13.91
2018-04-12T02:54:52.797Z,14.10
2018-04-12T02:57:24.650Z,14.11
2018-04-12T02:59:54.862Z,13.98
2018-04-12T03:02:26.175Z,14.05
2018-04-12T03:04:57.099Z,13.92
2018-04-12T03:07:27.369Z,14.05
2018-04-12T03:09:59.531Z,14.09
2018-04-12T03:12:30.450Z,14.23
2018-04-12T03:15:03.734Z,14.09
2018-04-12T03:17:34.556Z,14.13
2018-04-12T03:20:07.260Z,14.16
2018-04-12T03:25:11.090Z,13.91
2018-04-12T03:27:41.627Z,13.91
2018-04-12T03:30:15.199Z,13.98
2018-04-12T03:32:46.153Z,14.10
2018-04-12T03:35:16.472Z,14.13
2018-04-12T03:37:46.611Z,14.07
2018-04-12T03:40:17.045Z,13.98
2018-04-12T03:42:47.438Z,14.12
2018-04-12T03:45:18.095Z,14.18
2018-04-12T03:47:49.232Z,14.26
2018-04-12T03:50:20.105Z,14.11
2018-04-12T03:52:50.585Z,14.01
2018-04-12T03:55:21.203Z,13.86
2018-04-12T03:57:51.984Z,13.90
2018-04-12T04:00:22.656Z,13.85
2018-04-12T04:02:53.779Z,13.96
2018-04-12T04:05:24.657Z,13.88
2018-04-12T04:07:55.571Z,13.92
2018-04-12T04:10:25.873Z,14.06
2018-04-12T04:12:56.267Z,14.01
2018-04-12T04:15:38.026Z,14.10
2018-04-12T04:20:27.711Z,14.19
2018-04-12T04:23:02.451Z,13.98
2018-04-12T04:25:34.485Z,13.91
2018-04-12T04:28:04.892Z,13.94
2018-04-12T04:30:35.934Z,13.81
2018-04-12T04:33:06.630Z,13.84
2018-04-12T04:35:37.735Z,13.86
2018-04-12T04:38:08.258Z,14.03
2018-04-12T04:40:38.912Z,14.14
2018-04-12T04:43:09.580Z,14.06
2018-04-12T04:45:40.893Z,13.95
2018-04-12T04:48:14.037Z,13.95
2018-04-12T04:50:44.670Z,13.96
2018-04-12T04:53:15.000Z,13.83
2018-04-12T04:55:45.527Z,13.79
2018-04-12T04:58:15.838Z,13.81
2018-04-12T05:00:47.092Z,13.73
2018-04-12T05:03:18.128Z,13.67
2018-04-12T05:05:48.785Z,13.62
2018-04-12T05:08:19.345Z,13.77
2018-04-12T05:10:51.208Z,14.03
2018-04-12T05:13:24.152Z,14.12
2018-04-12T05:16:00.192Z,14.08
2018-04-12T05:18:41.906Z,14.12
2018-04-12T05:21:17.201Z,14.04
2018-04-12T05:23:47.650Z,14.04
2018-04-12T05:26:17.990Z,13.97
2018-04-12T05:28:48.292Z,13.85
2018-04-12T05:31:18.674Z,13.93
2018-04-12T05:33:49.670Z,13.91
2018-04-12T05:36:20.100Z,13.86
2018-04-12T05:38:50.540Z,13.77
2018-04-12T05:41:23.106Z,13.84
2018-04-12T05:43:53.903Z,14.02
2018-04-12T05:46:27.286Z,14.16
2018-04-12T05:48:58.218Z,13.95
2018-04-12T05:51:29.067Z,14.04
2018-04-12T05:54:00.247Z,14.03
2018-04-12T05:56:41.549Z,14.09
2018-04-12T05:59:13.732Z,14.15
2018-04-12T06:01:46.281Z,14.20
2018-04-12T06:04:16.772Z,14.30
2018-04-12T06:06:47.126Z,14.36
2018-04-12T06:09:17.840Z,14.56
2018-04-12T06:11:48.993Z,14.65
2018-04-12T06:14:19.618Z,14.89
2018-04-12T06:16:50.869Z,14.92
2018-04-12T06:19:21.957Z,15.13
2018-04-12T06:21:53.066Z,15.07
2018-04-12T06:24:24.317Z,14.54
2018-04-12T06:29:43.675Z,15.01
2018-04-12T06:32:14.909Z,14.94
2018-04-12T06:34:51.729Z,15.00
2018-04-12T06:37:23.090Z,14.98
2018-04-12T06:39:54.631Z,15.09
2018-04-12T06:42:35.376Z,15.09
2018-04-12T06:45:08.779Z,15.26
2018-04-12T06:47:46.045Z,15.23
2018-04-12T06:53:01.856Z,15.26
2018-04-12T06:55:34.225Z,15.39
2018-04-12T06:58:05.850Z,15.28
2018-04-12T07:00:36.822Z,15.46
2018-04-12T07:03:07.679Z,15.14
2018-04-12T07:05:39.452Z,15.13
2018-04-12T07:08:11.356Z,15.18
2018-04-12T07:10:42.548Z,15.46
2018-04-12T07:13:21.311Z,15.64
2018-04-12T07:15:53.417Z,15.65
2018-04-12T07:18:33.715Z,15.63
2018-04-12T07:21:26.883Z,15.69
2018-04-12T07:24:00.311Z,15.87
2018-04-12T07:26:32.773Z,16.15
2018-04-12T07:29:07.462Z,16.45
2018-04-12T07:31:40.789Z,16.24
2018-04-12T07:34:11.427Z,16.28
2018-04-12T07:36:49.205Z,16.26
2018-04-12T07:42:35.638Z,16.32
2018-04-12T07:45:07.843Z,16.24
2018-04-12T07:47:41.553Z,16.10
2018-04-12T07:50:12.198Z,15.98
2018-04-12T07:52:43.840Z,15.89
2018-04-12T07:55:14.965Z,15.84
2018-04-12T07:57:46.367Z,15.80
2018-04-12T08:00:25.406Z,15.77
2018-04-12T08:02:57.360Z,15.75
2018-04-12T08:05:28.201Z,15.68
2018-04-12T08:08:00.720Z,15.70
2018-04-12T08:10:35.817Z,15.66
2018-04-12T08:13:06.297Z,15.78
2018-04-12T08:15:41.859Z,15.91
2018-04-12T08:18:15.097Z,15.89
2018-04-12T08:20:47.650Z,15.85
2018-04-12T08:23:19.195Z,15.73
2018-04-12T08:25:50.586Z,15.72
2018-04-12T08:28:20.956Z,15.71
2018-04-12T08:30:51.607Z,15.73
2018-04-12T08:33:22.375Z,15.74
2018-04-12T08:35:54.379Z,15.66
2018-04-12T08:38:25.331Z,15.62
2018-04-12T08:41:04.689Z,15.43
2018-04-12T08:43:48.011Z,15.48
2018-04-12T08:46:18.675Z,15.52
2018-04-12T08:48:49.535Z,15.45
2018-04-12T08:51:20.093Z,15.51
2018-04-12T08:53:53.902Z,15.44
2018-04-12T08:56:27.605Z,15.46
2018-04-12T08:59:00.288Z,15.49
2018-04-12T09:01:33.319Z,15.53
2018-04-12T09:04:04.440Z,15.62
2018-04-12T09:06:35.933Z,15.78
2018-04-12T09:09:07.508Z,15.92
2018-04-12T09:11:38.855Z,16.27
2018-04-12T09:14:09.927Z,16.52
2018-04-12T09:16:42.804Z,16.45
2018-04-12T09:19:13.144Z,16.49
2018-04-12T09:21:44.899Z,16.59
2018-04-12T09:24:16.146Z,16.73
2018-04-12T09:26:46.534Z,17.12
2018-04-12T09:29:22.381Z,17.75
2018-04-12T09:31:53.850Z,17.92
2018-04-12T09:34:28.637Z,18.02
2018-04-12T09:37:01.596Z,17.94
2018-04-12T09:39:37.180Z,17.94
2018-04-12T09:42:08.431Z,18.42
2018-04-12T09:44:40.674Z,18.89
2018-04-12T09:47:13.997Z,19.19
2018-04-12T09:49:48.192Z,19.18
2018-04-12T09:52:30.444Z,18.99
2018-04-12T09:55:02.719Z,19.05
2018-04-12T09:57:38.502Z,19.33
2018-04-12T10:00:10.522Z,19.79
2018-04-12T10:02:48.526Z,19.88
2018-04-12T10:05:22.918Z,19.94
2018-04-12T10:07:56.200Z,20.25
2018-04-12T10:10:37.477Z,20.12
2018-04-12T10:13:17.725Z,20.02
2018-04-12T10:15:57.822Z,20.60
2018-04-12T10:18:33.645Z,21.19
2018-04-12T10:21:04.455Z,22.14
2018-04-12T10:23:45.496Z,22.22
2018-04-12T10:26:15.804Z,22.12
2018-04-12T10:28:49.319Z,21.83
2018-04-12T10:31:20.797Z,21.84
2018-04-12T10:33:53.324Z,21.66
2018-04-12T10:36:26.136Z,21.75
2018-04-12T10:39:03.712Z,21.59
2018-04-12T10:41:44.330Z,21.40
2018-04-12T10:44:15.751Z,21.55
2018-04-12T10:46:49.203Z,21.69
2018-04-12T10:49:20.520Z,21.78
2018-04-12T10:51:54.245Z,21.63
2018-04-12T10:54:39.043Z,21.48
2018-04-12T10:57:18.502Z,21.19
2018-04-12T10:59:51.653Z,21.43
2018-04-12T11:02:38.144Z,21.47
2018-04-12T11:05:11.275Z,21.53
2018-04-12T11:07:48.082Z,21.34
2018-04-12T11:10:21.190Z,21.43
2018-04-12T11:12:52.993Z,21.71
2018-04-12T11:15:26.974Z,21.99
2018-04-12T11:17:57.983Z,22.37
2018-04-12T11:20:28.548Z,23.21
2018-04-12T11:22:59.796Z,23.73
2018-04-12T11:25:31.886Z,24.28
2018-04-12T11:28:03.224Z,23.99
2018-04-12T11:30:35.933Z,23.57
2018-04-12T11:33:08.298Z,23.55
2018-04-12T11:35:40.368Z,24.21
2018-04-12T11:38:12.545Z,24.50
2018-04-12T11:40:44.858Z,24.05
2018-04-12T11:43:17.470Z,23.67
2018-04-12T11:45:49.477Z,23.93
2018-04-12T11:48:21.379Z,24.42
2018-04-12T11:50:58.942Z,24.60
2018-04-12T11:53:33.421Z,24.72
2018-04-12T11:56:07.718Z,24.45
2018-04-12T11:58:42.510Z,24.66
2018-04-12T12:01:17.624Z,25.35
2018-04-12T12:03:54.653Z,25.69
2018-04-12T12:06:26.781Z,25.45
2018-04-12T12:09:13.649Z,25.28
2018-04-12T12:11:54.958Z,25.30
2018-04-12T12:14:27.311Z,25.34
2018-04-12T12:16:58.619Z,25.74
2018-04-12T12:19:29.610Z,26.03
2018-04-12T12:22:00.370Z,25.83
2018-04-12T12:24:31.833Z,25.98
2018-04-12T12:27:04.337Z,26.19
2018-04-12T12:29:40.509Z,26.13
2018-04-12T12:32:12.333Z,25.85
2018-04-12T12:34:44.810Z,26.06
2018-04-12T12:37:18.326Z,26.17
2018-04-12T12:39:54.096Z,26.64
2018-04-12T12:42:27.634Z,26.53
2018-04-12T12:45:08.061Z,26.61
2018-04-12T12:47:46.114Z,26.87
2018-04-12T12:50:20.530Z,26.71
2018-04-12T12:52:52.028Z,26.74
2018-04-12T12:55:24.144Z,26.84
2018-04-12T12:57:55.732Z,27.53
2018-04-12T13:00:30.497Z,27.80
2018-04-12T13:03:01.714Z,27.64
2018-04-12T13:05:33.657Z,27.72
2018-04-12T13:08:04.940Z,27.42
2018-04-12T13:13:17.482Z,27.37
2018-04-12T13:15:48.454Z,27.86
2018-04-12T13:20:53.268Z,28.45
2018-04-12T13:23:23.676Z,28.17
2018-04-12T13:25:54.883Z,27.56
2018-04-12T13:28:26.110Z,27.30
2018-04-12T13:30:56.971Z,27.46
2018-04-12T13:33:35.883Z,26.68
2018-04-12T13:36:08.722Z,26.85
2018-04-12T13:38:39.723Z,26.39
2018-04-12T13:41:10.915Z,26.16
2018-04-12T13:43:42.245Z,26.07
2018-04-12T13:46:12.947Z,26.12
2018-04-12T13:48:47.209Z,26.55
2018-04-12T13:51:21.147Z,27.03
2018-04-12T13:53:54.604Z,27.38
2018-04-12T13:56:26.790Z,27.56
2018-04-12T13:59:05.410Z,26.74
2018-04-12T14:01:37.790Z,27.15
2018-04-12T14:04:19.005Z,27.32
2018-04-12T14:07:10.370Z,27.38
2018-04-12T14:09:42.150Z,27.53
2018-04-12T14:12:13.424Z,27.55
2018-04-12T14:14:44.625Z,27.54
2018-04-12T14:17:15.733Z,27.61
2018-04-12T14:19:46.096Z,27.70
2018-04-12T14:22:16.404Z,27.04
2018-04-12T14:24:47.046Z,27.18
2018-04-12T14:27:19.129Z,26.48
2018-04-12T14:29:50.295Z,26.36
2018-04-12T14:32:22.093Z,26.12
2018-04-12T14:34:52.644Z,25.47
2018-04-12T14:39:50.799Z,26.37
2018-04-12T14:42:23.294Z,26.50
2018-04-12T14:44:55.829Z,26.04
2018-04-12T14:47:26.856Z,26.50
2018-04-12T14:49:58.850Z,26.87
2018-04-12T14:52:30.832Z,26.74
2018-04-12T14:55:19.156Z,25.33
2018-04-12T14:57:49.895Z,25.91
2018-04-12T15:00:23.094Z,25.61
2018-04-12T15:02:55.952Z,25.22
2018-04-12T15:05:29.613Z,25.49
2018-04-12T15:08:05.854Z,25.31
2018-04-12T15:10:37.930Z,24.54
2018-04-12T15:13:15.614Z,24.87
2018-04-12T15:15:48.770Z,24.95
2018-04-12T15:18:22.089Z,24.52
2018-04-12T15:20:53.243Z,24.99
2018-04-12T15:23:32.165Z,24.89
2018-04-12T15:26:11.050Z,25.13
2018-04-12T15:28:45.053Z,24.79
2018-04-12T15:31:19.903Z,24.78
2018-04-12T15:33:53.608Z,25.11
2018-04-12T15:36:32.700Z,25.22
2018-04-12T15:39:06.697Z,25.33
2018-04-12T15:41:41.463Z,25.29
2018-04-12T15:44:26.119Z,25.47
2018-04-12T15:47:01.046Z,25.53
2018-04-12T15:49:33.296Z,25.45
2018-04-12T15:52:07.262Z,25.47
2018-04-12T15:54:38.391Z,25.39
2018-04-12T15:57:13.562Z,25.34
2018-04-12T15:59:49.388Z,25.26
2018-04-12T16:02:24.182Z,25.08
2018-04-12T16:05:10.286Z,25.03
2018-04-12T16:07:42.478Z,24.83
2018-04-12T16:10:13.674Z,24.78
2018-04-12T16:12:45.711Z,24.67
2018-04-12T16:15:20.058Z,24.83
2018-04-12T16:17:57.000Z,24.87
2018-04-12T16:20:40.194Z,24.85
2018-04-12T16:23:12.606Z,24.89
2018-04-12T16:25:46.302Z,24.70
2018-04-12T16:28:48.543Z,24.57
2018-04-12T16:31:21.054Z,24.55
2018-04-12T16:33:55.768Z,24.71
2018-04-12T16:36:33.905Z,24.77
2018-04-12T16:39:05.320Z,24.54
2018-04-12T16:41:37.892Z,24.62
2018-04-12T16:50:02.739Z,24.98
2018-04-12T16:52:33.119Z,24.89
2018-04-12T16:55:05.303Z,24.90
2018-04-12T16:57:35.640Z,24.40
2018-04-12T17:00:11.990Z,24.26
2018-04-12T17:02:54.568Z,24.25
2018-04-12T17:05:25.573Z,24.44
2018-04-12T17:08:06.016Z,24.25
2018-04-12T17:10:47.402Z,24.49
2018-04-12T17:13:20.331Z,24.15
2018-04-12T17:15:51.742Z,24.24
2018-04-12T17:18:24.840Z,24.22
2018-04-12T17:20:56.637Z,24.20
2018-04-12T17:23:28.393Z,23.77
2018-04-12T17:25:59.328Z,23.89
2018-04-12T17:28:30.856Z,23.23
2018-04-12T17:31:05.306Z,22.96
2018-04-12T17:33:39.083Z,22.80
2018-04-12T17:36:22.961Z,22.80
2018-04-12T17:38:56.161Z,22.61
2018-04-12T17:41:28.149Z,22.52
2018-04-12T17:43:58.704Z,22.59
2018-04-12T17:46:30.646Z,22.57
2018-04-12T17:49:01.375Z,22.67
2018-04-12T17:51:37.384Z,22.69
2018-04-12T17:54:08.099Z,22.88
2018-04-12T17:56:42.389Z,22.90
2018-04-12T17:59:17.748Z,22.76
2018-04-12T18:01:52.964Z,22.37
2018-04-12T18:04:25.386Z,22.13
2018-04-12T18:06:56.802Z,21.94
2018-04-12T18:09:50.664Z,22.02
2018-04-12T18:12:47.702Z,21.71
2018-04-12T18:15:19.294Z,22.04
2018-04-12T18:17:55.109Z,22.14
2018-04-12T18:20:27.617Z,21.91
2018-04-12T18:22:59.588Z,21.85
2018-04-12T18:25:34.190Z,21.84
2018-04-12T18:28:06.468Z,21.61
2018-04-12T18:30:37.341Z,21.54
2018-04-12T18:33:17.367Z,21.72
2018-04-12T18:35:49.108Z,21.57
2018-04-12T18:38:21.811Z,21.48
2018-04-12T18:40:52.442Z,21.29
2018-04-12T18:43:27.703Z,21.37
2018-04-12T18:45:59.456Z,21.43
2018-04-12T18:48:38.965Z,21.35
2018-04-12T18:51:13.551Z,21.20
2018-04-12T18:53:46.060Z,21.21
2018-04-12T18:56:16.566Z,21.02
2018-04-12T18:58:55.494Z,20.84
2018-04-12T19:01:38.495Z,20.76
2018-04-12T19:04:09.997Z,20.62
2018-04-12T19:06:41.679Z,20.34
2018-04-12T19:09:18.009Z,20.54
2018-04-12T19:11:48.861Z,20.76
2018-04-12T19:14:20.401Z,20.48
2018-04-12T19:16:52.148Z,20.10
2018-04-12T19:19:23.900Z,20.21
2018-04-12T19:21:59.028Z,20.22
2018-04-12T19:24:31.243Z,20.33
2018-04-12T19:27:01.904Z,20.00
2018-04-12T19:29:35.246Z,20.14
2018-04-12T19:32:12.997Z,20.05
2018-04-12T19:34:43.442Z,19.97
2018-04-12T19:37:13.609Z,19.87
2018-04-12T19:39:44.139Z,20.08
2018-04-12T19:42:14.570Z,20.12
2018-04-12T19:44:45.350Z,20.13
2018-04-12T19:47:16.464Z,20.08
2018-04-12T19:49:47.007Z,20.09
2018-04-12T19:52:17.566Z,20.01
2018-04-12T19:54:47.823Z,19.74
2018-04-12T19:57:18.325Z,19.60
2018-04-12T19:59:49.084Z,19.56
2018-04-12T20:02:21.858Z,19.54
2018-04-12T20:04:52.163Z,19.56
2018-04-12T20:10:02.397Z,19.75
2018-04-12T20:12:35.036Z,19.90
2018-04-12T20:15:08.404Z,20.01
2018-04-12T20:17:38.622Z,20.06
2018-04-12T20:20:09.673Z,20.04
2018-04-12T20:22:40.100Z,20.02
2018-04-12T20:25:10.793Z,20.01
2018-04-12T20:27:41.159Z,20.01
2018-04-12T20:30:14.337Z,20.01
2018-04-12T20:32:44.955Z,20.00
2018-04-12T20:35:19.874Z,19.93
2018-04-12T20:37:50.492Z,19.91
2018-04-12T20:40:20.795Z,19.90
2018-04-12T20:42:51.158Z,19.83
2018-04-12T20:45:22.011Z,19.73
2018-04-12T20:47:53.526Z,19.59
2018-04-12T20:50:25.273Z,19.35
2018-04-12T20:52:55.937Z,19.22
2018-04-12T20:55:28.407Z,19.21
2018-04-12T20:57:58.765Z,19.06
2018-04-12T21:00:38.761Z,18.97
2018-04-12T21:03:10.063Z,19.00
2018-04-12T21:05:40.305Z,18.94
2018-04-12T21:08:12.058Z,18.74
2018-04-12T21:10:45.911Z,18.87
2018-04-12T21:13:22.741Z,18.84
2018-04-12T21:15:54.160Z,18.92
2018-04-12T21:18:24.764Z,18.89
2018-04-12T21:20:55.229Z,18.92
2018-04-12T21:23:25.599Z,18.79
2018-04-12T21:25:56.866Z,18.85
2018-04-12T21:28:27.329Z,18.89
2018-04-12T21:30:59.306Z,18.92
2018-04-12T21:33:29.701Z,18.91
2018-04-12T21:36:00.228Z,18.85
2018-04-12T21:38:31.041Z,18.82
2018-04-12T21:41:03.644Z,18.80
2018-04-12T21:43:39.165Z,18.79
2018-04-12T21:46:10.602Z,18.71
2018-04-12T21:48:42.186Z,18.68
2018-04-12T21:51:13.297Z,18.59
2018-04-12T21:53:44.115Z,18.50
2018-04-12T21:56:15.968Z,18.34
2018-04-12T21:58:46.589Z,18.31
2018-04-12T22:01:17.589Z,18.32
2018-04-12T22:03:48.003Z,18.30
2018-04-12T22:06:19.169Z,18.28
2018-04-12T22:08:49.484Z,18.20
2018-04-12T22:11:20.347Z,18.16
2018-04-12T22:13:50.637Z,18.07
2018-04-12T22:16:21.791Z,18.09
2018-04-12T22:18:52.232Z,18.00
2018-04-12T22:21:22.773Z,17.95
2018-04-12T22:23:53.264Z,17.73
2018-04-12T22:26:23.748Z,17.46
2018-04-12T22:28:54.489Z,17.24
2018-04-12T22:31:27.485Z,17.18
2018-04-12T22:33:58.163Z,17.05
2018-04-12T22:36:28.738Z,17.03
2018-04-12T22:39:04.613Z,17.09
2018-04-12T22:45:08.735Z,17.04
2018-04-12T22:47:39.082Z,16.90
2018-04-12T22:50:09.687Z,17.04
2018-04-12T22:52:39.919Z,17.11
2018-04-12T22:55:10.763Z,17.09
2018-04-12T22:57:41.382Z,17.07
2018-04-12T23:00:16.012Z,17.05
2018-04-12T23:03:12.211Z,16.96
2018-04-12T23:05:43.356Z,16.88
2018-04-12T23:08:13.717Z,16.74
2018-04-12T23:10:44.465Z,16.72
2018-04-12T23:13:14.606Z,16.72
2018-04-12T23:15:45.143Z,16.67
2018-04-12T23:18:22.835Z,16.70
2018-04-12T23:20:53.247Z,16.69
2018-04-12T23:23:25.026Z,16.75
2018-04-12T23:25:55.461Z,16.77
2018-04-12T23:31:30.263Z,16.68
2018-04-12T23:34:01.291Z,16.54
2018-04-12T23:36:32.159Z,16.32
2018-04-12T23:39:02.664Z,15.99
2018-04-12T23:41:33.372Z,16.16
2018-04-12T23:47:26.408Z,16.35
2018-04-12T23:49:56.606Z,16.36
2018-04-12T23:52:27.534Z,16.40
2018-04-12T23:54:58.004Z,16.10
2018-04-12T23:57:29.037Z,15.79
2018-04-12T23:59:59.633Z,15.79
